Time;durP1;ratioP1;P1;durP2;ratioP2;P2;SDS_P1;SDS_P2;PMS_P1;PMS_P2;Temp;Humidity;BMP_temperature;BMP_pressure;BME280_temperature;BME280_humidity;BME280_pressure;Samples;Min_cycle;Max_cycle;Signal;HPM_P1;HPM_P2
2023/05/23 00:02:23;;;;;;;61.92;56.13;;;;;;;11.21;100.00;100828.88;5033630;28;20049;-83
2023/05/23 00:04:57;;;;;;;59.45;53.55;;;;;;;11.28;100.00;100833.38;5036905;28;20056;-83
2023/05/23 00:07:25;;;;;;;55.55;50.20;;;;;;;11.23;100.00;100840.13;5031647;28;20107;-83
2023/05/23 00:09:51;;;;;;;88.47;81.18;;;;;;;11.10;100.00;100847.28;5042053;28;20061;-83
2023/05/23 00:12:19;;;;;;;67.50;61.00;;;;;;;11.00;100.00;100843.22;5037270;28;20041;-83
2023/05/23 00:14:46;;;;;;;72.35;65.82;;;;;;;10.94;100.00;100845.88;5041465;28;20435;-83
2023/05/23 00:17:13;;;;;;;78.03;71.18;;;;;;;10.49;100.00;100846.47;5041019;28;20060;-83
2023/05/23 00:19:40;;;;;;;71.40;65.10;;;;;;;10.53;100.00;100841.59;5042425;28;20053;-83
2023/05/23 00:22:09;;;;;;;84.25;77.03;;;;;;;10.52;100.00;100837.28;5040545;28;20430;-83
2023/05/23 00:24:36;;;;;;;70.68;63.75;;;;;;;10.51;100.00;100838.31;5040129;28;20048;-83
2023/05/23 00:27:03;;;;;;;73.88;67.30;;;;;;;10.93;100.00;100838.94;5042311;28;20053;-83
2023/05/23 00:29:30;;;;;;;87.22;79.95;;;;;;;11.12;100.00;100834.63;5044779;28;20052;-84
2023/05/23 00:31:57;;;;;;;57.83;51.53;;;;;;;11.19;100.00;100840.75;5040250;28;20049;-83
2023/05/23 00:34:24;;;;;;;60.75;54.95;;;;;;;11.14;100.00;100835.25;5043363;28;20624;-83
2023/05/23 00:36:51;;;;;;;69.28;62.80;;;;;;;11.07;100.00;100843.19;5041572;28;20064;-84
2023/05/23 00:39:19;;;;;;;65.78;59.88;;;;;;;11.06;100.00;100852.22;5036314;28;20045;-83
2023/05/23 00:41:47;;;;;;;62.80;56.65;;;;;;;11.14;100.00;100843.22;5042273;28;20479;-83
2023/05/23 00:44:14;;;;;;;59.08;53.38;;;;;;;11.16;100.00;100851.78;5041141;28;20044;-83
2023/05/23 00:46:45;;;;;;;63.22;57.63;;;;;;;11.08;100.00;100849.38;5040241;28;21149;-83
2023/05/23 00:49:13;;;;;;;61.47;55.38;;;;;;;11.00;100.00;100863.66;5039639;28;20081;-83
2023/05/23 00:51:41;;;;;;;68.85;62.83;;;;;;;10.87;100.00;100850.38;5044323;28;20048;-82
2023/05/23 00:54:09;;;;;;;59.88;54.35;;;;;;;10.85;100.00;100842.59;5040636;28;20076;-83
2023/05/23 00:56:38;;;;;;;59.22;53.72;;;;;;;10.87;100.00;100847.72;5038262;28;20515;-84
2023/05/23 00:59:07;;;;;;;61.45;55.65;;;;;;;10.52;100.00;100837.28;5039967;28;20056;-83
2023/05/23 01:01:36;;;;;;;65.22;59.33;;;;;;;10.77;100.00;100848.13;5045905;28;20068;-83
2023/05/23 01:04:03;;;;;;;69.30;63.00;;;;;;;10.82;100.00;100845.66;5037335;28;20533;-83
2023/05/23 01:06:32;;;;;;;70.50;64.20;;;;;;;10.79;100.00;100840.78;5044236;28;20049;-83
2023/05/23 01:09:01;;;;;;;66.13;60.03;;;;;;;10.49;100.00;100845.66;5042389;28;20499;-84
2023/05/23 01:11:35;;;;;;;72.30;65.82;;;;;;;10.66;100.00;100846.09;5041184;28;20079;-83
2023/05/23 01:14:15;;;;;;;65.22;59.03;;;;;;;10.66;100.00;100838.94;5039866;28;20055;-83
2023/05/23 01:16:48;;;;;;;62.95;56.33;;;;;;;10.67;100.00;100853.03;5039831;28;20056;-76
2023/05/23 01:19:39;;;;;;;69.22;62.92;;;;;;;10.74;100.00;100838.75;5040501;28;20053;-75
2023/05/23 01:22:17;;;;;;;67.22;60.90;;;;;;;10.74;100.00;100846.72;5040827;28;20048;-83
2023/05/23 01:24:54;;;;;;;67.30;61.40;;;;;;;10.47;100.00;100845.84;5039414;28;20049;-84
2023/05/23 01:27:29;;;;;;;68.00;62.08;;;;;;;10.58;100.00;100838.31;5046680;28;20449;-83
2023/05/23 01:30:04;;;;;;;59.25;53.72;;;;;;;10.84;100.00;100848.16;5042842;28;20507;-83
2023/05/23 01:32:32;;;;;;;70.60;64.50;;;;;;;10.72;100.00;100846.09;5041360;28;20505;-76
2023/05/23 01:35:00;;;;;;;68.53;62.33;;;;;;;10.78;100.00;100841.81;5039731;28;20609;-75
2023/05/23 01:37:28;;;;;;;67.30;61.28;;;;;;;10.62;100.00;100840.38;5039082;28;20045;-83
2023/05/23 01:39:55;;;;;;;67.65;61.45;;;;;;;10.36;100.00;100843.78;5038754;28;20079;-84
2023/05/23 01:42:22;;;;;;;76.80;70.10;;;;;;;10.37;100.00;100847.25;5039590;28;20053;-84
2023/05/23 01:44:49;;;;;;;75.10;68.60;;;;;;;10.66;100.00;100846.09;5042044;28;20060;-83
2023/05/23 01:47:18;;;;;;;62.95;57.35;;;;;;;10.57;100.00;100845.47;5038648;28;20046;-83
2023/05/23 01:49:47;;;;;;;68.20;62.20;;;;;;;10.53;100.00;100849.56;5040602;28;20050;-83
2023/05/23 01:52:15;;;;;;;76.60;70.10;;;;;;;10.38;100.00;100844.41;5039523;28;20107;-84
2023/05/23 01:54:43;;;;;;;68.88;62.97;;;;;;;10.61;100.00;100849.34;5040454;28;20057;-83
2023/05/23 01:57:10;;;;;;;68.88;62.50;;;;;;;10.57;100.00;100847.31;5039917;28;20049;-84
2023/05/23 01:59:37;;;;;;;68.28;62.33;;;;;;;10.59;100.00;100847.91;5040835;28;20045;-83
2023/05/23 02:02:05;;;;;;;67.55;61.65;;;;;;;10.50;100.00;100847.31;5048063;28;20077;-84
2023/05/23 02:04:34;;;;;;;66.75;61.05;;;;;;;10.39;100.00;100848.69;5036165;28;20057;-83
2023/05/23 02:07:02;;;;;;;78.57;72.20;;;;;;;10.40;100.00;100852.16;5039101;28;20054;-84
2023/05/23 02:09:29;;;;;;;89.78;82.97;;;;;;;10.41;100.00;100841.34;5042819;28;20064;-84
2023/05/23 02:11:56;;;;;;;93.05;85.90;;;;;;;10.44;100.00;100848.06;5042878;28;20056;-83
2023/05/23 02:14:25;;;;;;;95.65;88.55;;;;;;;10.37;100.00;100847.25;5036169;28;20052;-84
2023/05/23 02:16:52;;;;;;;69.80;63.90;;;;;;;10.08;100.00;100851.84;5044132;28;20411;-83
2023/05/23 02:19:19;;;;;;;78.68;71.93;;;;;;;9.72;100.00;100852.13;5038720;28;20050;-83
2023/05/23 02:21:47;;;;;;;90.80;83.47;;;;;;;10.03;100.00;100860.41;5041217;28;20144;-84
2023/05/23 02:24:14;;;;;;;73.35;67.15;;;;;;;10.35;100.00;100855.44;5045068;28;20044;-83
2023/05/23 02:26:41;;;;;;;84.32;77.72;;;;;;;9.86;100.00;100859.09;5044645;28;20052;-75
2023/05/23 02:29:08;;;;;;;71.80;65.70;;;;;;;10.03;100.00;100856.94;5046475;28;20052;-75
2023/05/23 02:31:36;;;;;;;69.47;63.08;;;;;;;9.68;100.00;100858.81;5041927;28;20049;-75
2023/05/23 02:34:03;;;;;;;55.55;49.83;;;;;;;9.40;100.00;100854.38;5045387;28;20111;-76
2023/05/23 02:36:32;;;;;;;62.33;56.63;;;;;;;9.93;100.00;100844.03;5040991;28;20049;-76
2023/05/23 02:39:00;;;;;;;50.70;45.47;;;;;;;10.08;100.00;100851.84;5036949;28;20554;-83
2023/05/23 02:41:27;;;;;;;51.08;45.95;;;;;;;10.00;100.00;100849.38;5043550;28;20076;-83
2023/05/23 02:43:54;;;;;;;45.17;40.75;;;;;;;10.14;100.00;100858.22;5042825;28;20045;-75
2023/05/23 02:46:21;;;;;;;45.03;40.53;;;;;;;9.63;100.00;100844.31;5041385;28;20052;-76
2023/05/23 02:48:48;;;;;;;50.55;45.75;;;;;;;9.88;100.00;100854.41;5043935;28;20049;-75
2023/05/23 02:51:15;;;;;;;50.45;45.50;;;;;;;9.91;100.00;100855.88;5035695;28;20049;-84
2023/05/23 02:53:42;;;;;;;48.78;44.28;;;;;;;9.42;100.00;100856.84;5043208;28;20049;-75
2023/05/23 02:56:12;;;;;;;48.65;44.28;;;;;;;9.30;100.00;100860.03;5042883;28;20053;-76
2023/05/23 02:58:39;;;;;;;53.35;48.33;;;;;;;9.13;100.00;100871.94;5044138;28;20210;-76
2023/05/23 03:01:08;;;;;;;56.83;51.38;;;;;;;9.46;100.00;100869.50;5041248;28;20057;-76
2023/05/23 03:03:35;;;;;;;54.17;48.83;;;;;;;9.89;100.00;100869.31;5037972;28;20054;-75
2023/05/23 03:06:03;;;;;;;49.97;45.17;;;;;;;9.89;100.00;100868.50;5042069;28;20099;-83
2023/05/23 03:08:30;;;;;;;50.38;45.55;;;;;;;9.87;100.00;100876.66;5043804;28;20538;-83
2023/05/23 03:10:57;;;;;;;50.05;45.08;;;;;;;9.84;100.00;100879.72;5041245;28;20407;-76
2023/05/23 03:13:26;;;;;;;51.92;47.13;;;;;;;10.02;100.00;100877.34;5040816;28;20048;-75
2023/05/23 03:15:56;;;;;;;51.35;46.08;;;;;;;10.10;100.00;100879.00;5042347;28;20060;-76
2023/05/23 03:18:23;;;;;;;48.25;43.75;;;;;;;10.04;100.00;100885.09;5040915;28;20049;-75
2023/05/23 03:20:50;;;;;;;49.60;44.80;;;;;;;10.16;100.00;100880.03;5031722;28;20474;-76
2023/05/23 03:23:17;;;;;;;49.40;44.40;;;;;;;10.16;100.00;100874.72;5031817;28;20058;-75
2023/05/23 03:25:43;;;;;;;48.83;44.05;;;;;;;10.41;100.00;100880.34;5043096;28;20041;-76
2023/05/23 03:28:11;;;;;;;50.38;45.78;;;;;;;10.42;100.00;100884.66;5034549;28;20053;-75
2023/05/23 03:30:39;;;;;;;53.70;48.42;;;;;;;10.37;100.00;100890.56;5032607;28;20057;-75
2023/05/23 03:33:06;;;;;;;47.65;43.00;;;;;;;10.13;100.00;100883.09;5040462;28;20045;-76
2023/05/23 03:35:33;;;;;;;50.70;46.20;;;;;;;10.54;100.00;100883.03;5031769;28;20053;-78
2023/05/23 03:38:00;;;;;;;50.88;46.17;;;;;;;10.57;100.00;100892.44;5041199;28;20054;-75
2023/05/23 03:40:27;;;;;;;50.22;45.53;;;;;;;10.59;100.00;100895.72;5035894;28;20045;-75
2023/05/23 03:43:03;;;;;;;49.95;44.95;;;;;;;10.76;100.00;100902.28;5034093;28;20442;-76
2023/05/23 03:45:30;;;;;;;50.50;45.80;;;;;;;10.52;100.00;100906.31;5041522;28;20130;-83
2023/05/23 03:47:58;;;;;;;50.35;45.70;;;;;;;10.88;100.00;100902.50;5044183;28;20044;-83
2023/05/23 03:50:25;;;;;;;46.90;42.53;;;;;;;10.91;100.00;100907.41;5041407;28;20064;-84
2023/05/23 03:52:52;;;;;;;50.00;45.58;;;;;;;11.01;100.00;100902.50;5039628;28;20046;-83
2023/05/23 03:55:21;;;;;;;52.10;47.10;;;;;;;11.14;100.00;100904.38;5040584;28;20115;-83
2023/05/23 03:57:48;;;;;;;52.17;47.08;;;;;;;10.94;100.00;100899.03;5045686;28;20126;-75
2023/05/23 04:00:15;;;;;;;55.33;50.22;;;;;;;11.27;100.00;100895.56;5041930;28;20050;-76
2023/05/23 04:02:42;;;;;;;57.25;51.97;;;;;;;11.39;100.00;100901.88;5033266;28;20064;-75
2023/05/23 04:05:10;;;;;;;51.90;47.05;;;;;;;11.35;100.00;100898.81;5033611;28;20172;-75
2023/05/23 04:07:38;;;;;;;52.40;47.65;;;;;;;11.33;100.00;100900.88;5040727;28;20064;-76
2023/05/23 04:10:08;;;;;;;49.97;45.67;;;;;;;11.18;100.00;100908.25;5039479;28;20060;-76
2023/05/23 04:12:40;;;;;;;51.40;46.90;;;;;;;11.27;100.00;100911.50;5036653;28;20041;-75
2023/05/23 04:15:08;;;;;;;51.95;47.25;;;;;;;11.28;100.00;100907.81;5030606;28;20832;-75
2023/05/23 04:17:38;;;;;;;51.58;46.90;;;;;;;11.37;100.00;100911.91;5037497;28;20485;-75
2023/05/23 04:20:08;;;;;;;49.60;45.08;;;;;;;11.49;100.00;100917.41;5038648;28;20045;-76
2023/05/23 04:22:36;;;;;;;52.67;47.53;;;;;;;11.45;100.00;100922.34;5035813;28;20049;-75
2023/05/23 04:25:04;;;;;;;53.15;47.95;;;;;;;11.59;100.00;100915.97;5040462;28;20072;-76
2023/05/23 04:27:31;;;;;;;52.80;48.00;;;;;;;11.47;100.00;100922.97;5047906;28;20049;-76
2023/05/23 04:29:59;;;;;;;58.17;52.83;;;;;;;11.60;100.00;100917.59;5042465;28;20053;-76
2023/05/23 04:32:26;;;;;;;54.47;49.08;;;;;;;11.77;100.00;100928.63;5041408;28;20049;-76
2023/05/23 04:34:53;;;;;;;55.90;50.30;;;;;;;11.84;100.00;100915.31;5043800;28;20044;-75
2023/05/23 04:37:24;;;;;;;54.67;49.78;;;;;;;11.64;100.00;100926.78;5037139;28;20049;-76
2023/05/23 04:39:53;;;;;;;53.72;48.30;;;;;;;11.63;100.00;100922.50;5041177;28;20438;-76
2023/05/23 04:42:23;;;;;;;52.03;47.25;;;;;;;11.81;100.00;100931.69;5036518;28;20054;-75
2023/05/23 04:44:50;;;;;;;52.45;47.13;;;;;;;11.76;100.00;100937.63;5037914;28;20057;-76
2023/05/23 04:47:17;;;;;;;55.25;50.10;;;;;;;11.91;100.00;100932.09;5040118;28;20045;-76
2023/05/23 04:49:44;;;;;;;50.95;46.33;;;;;;;11.95;100.00;100930.63;5041145;28;20118;-75
2023/05/23 04:52:12;;;;;;;52.75;48.05;;;;;;;12.23;100.00;100940.19;5039025;28;20037;-76
2023/05/23 04:54:43;;;;;;;52.83;48.20;;;;;;;12.27;100.00;100928.88;5039223;28;20071;-76
2023/05/23 04:57:11;;;;;;;52.45;47.70;;;;;;;12.43;100.00;100934.75;5039826;28;20450;-76
2023/05/23 04:59:38;;;;;;;53.80;49.00;;;;;;;12.57;100.00;100928.34;5032808;28;20120;-83
2023/05/23 05:02:09;;;;;;;57.83;52.22;;;;;;;12.71;100.00;100924.56;5039415;28;20049;-76
2023/05/23 05:04:36;;;;;;;59.88;54.03;;;;;;;12.66;100.00;100929.72;5030078;28;20045;-75
2023/05/23 05:07:03;;;;;;;63.42;57.80;;;;;;;12.95;100.00;100935.47;5037796;28;20049;-75
2023/05/23 05:09:30;;;;;;;62.25;56.83;;;;;;;12.92;100.00;100942.06;5047526;28;20060;-75
2023/05/23 05:11:57;;;;;;;60.17;54.55;;;;;;;13.07;100.00;100936.38;5039871;28;20057;-76
2023/05/23 05:14:27;;;;;;;64.88;58.80;;;;;;;13.24;100.00;100936.69;5035273;28;20048;-75
2023/05/23 05:16:56;;;;;;;70.93;64.00;;;;;;;13.46;100.00;100926.44;5037492;28;20057;-76
2023/05/23 05:19:23;;;;;;;67.93;61.97;;;;;;;13.61;100.00;100926.91;5043125;28;20068;-76
2023/05/23 05:21:50;;;;;;;69.53;63.33;;;;;;;13.69;100.00;100915.16;5039567;28;20072;-76
2023/05/23 05:24:19;;;;;;;67.82;61.95;;;;;;;13.82;100.00;100912.31;5044017;28;20052;-82
2023/05/23 05:26:47;;;;;;;67.45;61.45;;;;;;;13.87;100.00;100907.16;5043892;28;20052;-75
2023/05/23 05:29:13;;;;;;;69.63;63.30;;;;;;;13.78;100.00;100910.34;5036701;28;20057;-75
2023/05/23 05:31:44;;;;;;;68.70;62.17;;;;;;;14.16;100.00;100915.41;5040465;28;20052;-75
2023/05/23 05:34:11;;;;;;;71.15;64.63;;;;;;;14.41;100.00;100913.47;5040596;28;20041;-75
2023/05/23 05:36:44;;;;;;;77.07;70.25;;;;;;;14.77;100.00;100898.38;5039945;28;20087;-76
2023/05/23 05:39:12;;;;;;;80.07;73.13;;;;;;;15.05;100.00;100912.97;5039159;28;20521;-75
2023/05/23 05:41:39;;;;;;;82.57;75.10;;;;;;;14.91;100.00;100911.53;5038602;28;20429;-75
2023/05/23 05:44:10;;;;;;;91.90;84.07;;;;;;;15.19;100.00;100930.44;5029293;28;20041;-75
2023/05/23 05:46:36;;;;;;;97.32;89.50;;;;;;;15.57;100.00;100915.78;5034394;28;20054;-75
2023/05/23 05:49:05;;;;;;;97.88;89.38;;;;;;;15.78;100.00;100919.75;5040814;28;20068;-76
2023/05/23 05:51:31;;;;;;;103.95;95.55;;;;;;;15.76;100.00;100928.03;5038888;28;20072;-75
2023/05/23 05:53:58;;;;;;;97.85;89.22;;;;;;;15.76;100.00;100919.16;5043426;28;20050;-75
2023/05/23 05:56:26;;;;;;;98.50;90.78;;;;;;;15.91;100.00;100924.03;5040331;28;20598;-76
2023/05/23 05:58:53;;;;;;;96.95;88.93;;;;;;;16.13;100.00;100922.34;5041826;28;20060;-75
2023/05/23 06:01:20;;;;;;;97.80;89.60;;;;;;;16.36;100.00;100918.75;5040828;28;20060;-75
2023/05/23 06:03:47;;;;;;;98.13;90.03;;;;;;;16.53;100.00;100920.69;5042624;28;20760;-76
2023/05/23 06:06:15;;;;;;;98.07;89.55;;;;;;;16.48;100.00;100913.34;5041144;28;20059;-75
2023/05/23 06:08:42;;;;;;;101.88;93.30;;;;;;;17.05;100.00;100921.34;5042160;28;20065;-75
2023/05/23 06:11:10;;;;;;;107.15;98.35;;;;;;;17.00;100.00;100923.13;5042348;28;20077;-75
2023/05/23 06:13:37;;;;;;;94.05;86.35;;;;;;;16.92;100.00;100922.47;5042354;28;20052;-76
2023/05/23 06:16:05;;;;;;;88.07;80.47;;;;;;;17.31;100.00;100927.94;5044287;28;20044;-75
2023/05/23 06:18:32;;;;;;;89.65;82.15;;;;;;;17.50;100.00;100923.09;5044407;28;20520;-75
2023/05/23 06:20:59;;;;;;;79.05;72.53;;;;;;;17.51;100.00;100921.22;5043561;28;20041;-76
2023/05/23 06:23:27;;;;;;;69.78;63.88;;;;;;;17.70;100.00;100916.38;5042233;28;20057;-75
2023/05/23 06:25:54;;;;;;;75.85;69.45;;;;;;;17.88;100.00;100912.63;5041859;28;20065;-76
2023/05/23 06:28:21;;;;;;;84.82;77.93;;;;;;;18.11;100.00;100916.94;5049600;28;20055;-76
2023/05/23 06:30:48;;;;;;;67.50;61.63;;;;;;;17.90;100.00;100908.63;5040061;28;20047;-76
2023/05/23 06:33:16;;;;;;;68.05;62.45;;;;;;;17.95;100.00;100915.94;5042233;28;20422;-76
2023/05/23 06:35:43;;;;;;;65.00;59.28;;;;;;;18.26;100.00;100906.34;5042596;28;20510;-75
2023/05/23 06:38:09;;;;;;;57.63;52.50;;;;;;;18.29;100.00;100903.97;5046373;28;20057;-76
2023/05/23 06:40:38;;;;;;;55.17;50.38;;;;;;;18.44;100.00;100897.94;5041822;28;20053;-76
2023/05/23 06:43:04;;;;;;;48.53;44.15;;;;;;;18.51;100.00;100903.09;5041470;28;20060;-76
2023/05/23 06:45:33;;;;;;;55.08;50.15;;;;;;;18.70;100.00;100904.38;5041045;28;20053;-76
2023/05/23 06:48:01;;;;;;;51.78;46.80;;;;;;;18.84;100.00;100896.72;5042295;28;20056;-76
2023/05/23 06:50:27;;;;;;;62.35;56.42;;;;;;;19.29;100.00;100892.75;5035241;28;20041;-76
2023/05/23 06:52:55;;;;;;;47.95;43.25;;;;;;;19.49;100.00;100892.06;5044455;28;20059;-83
2023/05/23 06:55:23;;;;;;;46.30;42.05;;;;;;;19.41;100.00;100893.34;5037737;28;20085;-84
2023/05/23 06:57:51;;;;;;;44.90;40.40;;;;;;;19.31;100.00;100890.63;5041719;28;20049;-83
2023/05/23 07:00:18;;;;;;;42.28;38.03;;;;;;;19.57;100.00;100883.47;5040647;28;20073;-76
2023/05/23 07:02:47;;;;;;;40.33;36.75;;;;;;;19.46;100.00;100887.19;5049127;28;20053;-82
2023/05/23 07:05:14;;;;;;;42.45;38.17;;;;;;;19.40;100.00;100883.66;5039815;28;20080;-82
2023/05/23 07:07:41;;;;;;;43.03;38.83;;;;;;;19.87;100.00;100884.72;5044226;28;20060;-76
2023/05/23 07:10:09;;;;;;;51.17;46.25;;;;;;;20.46;100.00;100875.44;5047205;28;20064;-76
2023/05/23 07:12:36;;;;;;;50.83;45.75;;;;;;;20.58;100.00;100876.84;5032208;28;20053;-83
2023/05/23 07:15:05;;;;;;;49.58;44.67;;;;;;;20.51;100.00;100872.75;5032329;28;20408;-76
2023/05/23 07:17:32;;;;;;;38.33;34.80;;;;;;;20.36;100.00;100866.28;5044313;28;20045;-76
2023/05/23 07:19:58;;;;;;;39.17;34.63;;;;;;;20.07;100.00;100860.53;5037774;28;20056;-83
2023/05/23 07:22:25;;;;;;;39.45;35.55;;;;;;;19.75;100.00;100866.06;5045586;28;20045;-76
2023/05/23 07:24:52;;;;;;;32.97;30.05;;;;;;;19.90;100.00;100870.72;5039030;28;20049;-76
2023/05/23 07:27:19;;;;;;;36.55;33.17;;;;;;;20.31;100.00;100855.47;5047949;28;20045;-76
2023/05/23 07:29:46;;;;;;;31.65;28.88;;;;;;;20.48;100.00;100862.50;5039991;28;20053;-76
2023/05/23 07:32:14;;;;;;;31.77;28.85;;;;;;;20.79;100.00;100872.25;5041008;28;20049;-76
2023/05/23 07:34:41;;;;;;;30.17;27.63;;;;;;;20.84;100.00;100865.22;5042882;28;20045;-76
2023/05/23 07:37:08;;;;;;;35.65;32.30;;;;;;;21.31;100.00;100869.50;5039872;28;20060;-76
2023/05/23 07:39:38;;;;;;;28.98;26.38;;;;;;;20.80;100.00;100865.78;5039267;28;20513;-76
2023/05/23 07:42:05;;;;;;;33.20;29.83;;;;;;;21.11;100.00;100868.44;5040174;28;20053;-76
2023/05/23 07:44:32;;;;;;;34.30;31.13;;;;;;;21.20;100.00;100861.41;5044691;28;20049;-76
2023/05/23 07:46:59;;;;;;;33.20;29.98;;;;;;;21.19;100.00;100867.91;5031243;28;20147;-76
2023/05/23 07:49:27;;;;;;;34.65;31.52;;;;;;;21.44;100.00;100868.94;5031276;28;20180;-76
2023/05/23 07:51:54;;;;;;;30.20;27.33;;;;;;;21.18;100.00;100860.06;5042270;28;20048;-76
2023/05/23 07:54:21;;;;;;;34.22;31.17;;;;;;;21.19;100.00;100864.41;5041278;28;20052;-76
2023/05/23 07:56:48;;;;;;;31.63;28.88;;;;;;;21.05;100.00;100856.84;5040458;28;20041;-76
2023/05/23 07:59:15;;;;;;;30.02;27.73;;;;;;;20.97;100.00;100865.50;5038463;28;20049;-76
2023/05/23 08:01:43;;;;;;;35.08;31.95;;;;;;;21.73;100.00;100861.03;5031348;28;20081;-76
2023/05/23 08:04:10;;;;;;;27.92;25.73;;;;;;;21.10;100.00;100856.03;5036569;28;20545;-76
2023/05/23 08:06:39;;;;;;;25.50;23.30;;;;;;;21.10;100.00;100863.31;5037656;28;20411;-76
2023/05/23 08:09:06;;;;;;;28.55;26.40;;;;;;;21.67;100.00;100859.41;5039870;28;20451;-76
2023/05/23 08:11:33;;;;;;;28.02;25.90;;;;;;;21.70;100.00;100858.88;5042818;28;20056;-76
2023/05/23 08:14:01;;;;;;;27.10;24.98;;;;;;;21.79;100.00;100854.50;5037785;28;20423;-76
2023/05/23 08:16:28;;;;;;;28.60;26.38;;;;;;;21.71;100.00;100852.38;5041434;28;20053;-76
2023/05/23 08:18:55;;;;;;;27.65;25.35;;;;;;;22.27;100.00;100848.56;5039976;28;20050;-76
2023/05/23 08:21:23;;;;;;;27.75;25.20;;;;;;;22.52;100.00;100853.81;5039648;28;20053;-76
2023/05/23 08:23:51;;;;;;;101.43;49.30;;;;;;;22.51;100.00;100837.84;5041321;28;20451;-76
2023/05/23 08:26:18;;;;;;;56.35;35.05;;;;;;;22.21;100.00;100844.28;5030462;28;20052;-76
2023/05/23 08:28:45;;;;;;;34.45;27.38;;;;;;;22.59;100.00;100832.63;5033314;28;20438;-76
2023/05/23 08:31:12;;;;;;;104.78;54.42;;;;;;;21.72;100.00;100833.19;5041574;28;20057;-76
2023/05/23 08:33:38;;;;;;;29.38;26.30;;;;;;;22.59;100.00;100829.13;5041412;28;20056;-76
2023/05/23 08:36:07;;;;;;;79.65;44.25;;;;;;;22.53;100.00;100822.94;5047143;28;20067;-76
2023/05/23 08:38:37;;;;;;;62.10;38.72;;;;;;;22.25;100.00;100827.22;5038682;28;20557;-76
2023/05/23 08:41:16;;;;;;;24.50;22.50;;;;;;;23.14;100.00;100818.88;5044427;28;20140;-76
2023/05/23 08:43:43;;;;;;;23.33;21.52;;;;;;;23.26;100.00;100823.91;5041478;28;20076;-76
2023/05/23 08:46:10;;;;;;;23.33;21.20;;;;;;;23.08;100.00;100822.72;5035636;28;20424;-77
2023/05/23 08:48:39;;;;;;;22.92;20.80;;;;;;;22.77;100.00;100825.72;5046033;28;20055;-76
2023/05/23 08:51:09;;;;;;;23.52;21.52;;;;;;;22.93;100.00;100815.53;5040004;28;20064;-76
2023/05/23 08:53:38;;;;;;;23.85;21.85;;;;;;;23.26;100.00;100819.28;5038833;28;20068;-76
2023/05/23 08:56:07;;;;;;;25.10;22.98;;;;;;;23.37;100.00;100813.75;5029820;28;20045;-76
2023/05/23 08:58:35;;;;;;;25.15;23.00;;;;;;;22.84;100.00;100822.66;5032633;28;20416;-76
2023/05/23 09:01:02;;;;;;;23.98;22.13;;;;;;;23.43;100.00;100821.53;5039069;28;20054;-76
2023/05/23 09:03:29;;;;;;;22.30;20.50;;;;;;;22.70;100.00;100814.41;5036384;28;20416;-76
2023/05/23 09:05:57;;;;;;;25.35;23.17;;;;;;;23.24;100.00;100820.69;5039005;28;20057;-76
2023/05/23 09:08:24;;;;;;;32.70;26.27;;;;;;;22.55;100.00;100811.84;5040479;28;20576;-82
2023/05/23 09:10:52;;;;;;;25.45;23.05;;;;;;;23.15;100.00;100811.56;5037499;28;20453;-76
2023/05/23 09:13:20;;;;;;;23.52;21.60;;;;;;;22.67;100.00;100806.06;5041587;28;20044;-83
2023/05/23 09:15:58;;;;;;;24.08;22.08;;;;;;;23.28;100.00;100805.47;5040938;28;20091;-76
2023/05/23 09:18:25;;;;;;;23.23;21.15;;;;;;;23.71;100.00;100811.72;5040393;28;20052;-76
2023/05/23 09:20:53;;;;;;;21.38;19.67;;;;;;;23.54;100.00;100786.97;5039485;28;20422;-76
2023/05/23 09:23:20;;;;;;;24.70;22.73;;;;;;;23.82;100.00;100804.28;5029750;28;20513;-76
2023/05/23 09:25:47;;;;;;;23.80;21.90;;;;;;;24.18;100.00;100801.03;5041082;28;20677;-76
2023/05/23 09:28:14;;;;;;;23.42;21.63;;;;;;;23.65;100.00;100802.00;5033073;28;20045;-76
2023/05/23 09:30:42;;;;;;;22.73;21.10;;;;;;;23.18;100.00;100805.56;5042993;28;20081;-76
2023/05/23 09:33:11;;;;;;;23.45;21.48;;;;;;;24.05;100.00;100793.63;5044261;28;20489;-76
2023/05/23 09:35:44;;;;;;;22.25;20.35;;;;;;;23.85;100.00;100795.53;5042338;28;20045;-76
2023/05/23 09:38:11;;;;;;;25.98;24.05;;;;;;;24.08;100.00;100787.59;5047598;28;20045;-76
2023/05/23 09:40:44;;;;;;;24.92;23.00;;;;;;;24.27;100.00;100784.88;5041239;28;20530;-76
2023/05/23 09:43:11;;;;;;;24.48;22.65;;;;;;;24.10;100.00;100780.00;5044794;28;20057;-76
2023/05/23 09:45:38;;;;;;;24.27;22.50;;;;;;;24.32;100.00;100785.59;5040867;28;20072;-76
2023/05/23 09:48:12;;;;;;;24.45;22.50;;;;;;;24.45;100.00;100793.03;5040640;28;20053;-76
2023/05/23 09:50:39;;;;;;;23.38;21.48;;;;;;;24.75;100.00;100788.16;5043371;28;20045;-76
2023/05/23 09:53:07;;;;;;;24.75;22.85;;;;;;;23.50;100.00;100786.75;5049881;28;20041;-76
2023/05/23 09:55:34;;;;;;;23.52;21.70;;;;;;;23.99;100.00;100776.63;5043248;28;20041;-76
2023/05/23 09:58:02;;;;;;;24.80;22.90;;;;;;;24.56;100.00;100790.94;5042969;28;20105;-76
2023/05/23 10:00:30;;;;;;;24.10;21.95;;;;;;;25.27;100.00;100777.97;5043108;28;20057;-76
2023/05/23 10:03:11;;;;;;;24.63;22.55;;;;;;;25.03;100.00;100777.34;5038412;28;20045;-77
2023/05/23 10:05:43;;;;;;;25.67;23.98;;;;;;;24.54;100.00;100781.47;5040081;28;20049;-76
2023/05/23 10:08:18;;;;;;;25.10;23.27;;;;;;;24.45;100.00;100781.38;5041332;28;20068;-76
2023/05/23 10:11:33;;;;;;;24.02;21.92;;;;;;;24.41;100.00;100772.16;5041163;28;20503;-77
2023/05/23 10:14:02;;;;;;;24.60;22.45;;;;;;;24.57;100.00;100775.44;5042638;28;20045;-76
2023/05/23 10:16:38;;;;;;;25.42;23.52;;;;;;;24.58;100.00;100771.63;5040405;28;20042;-76
2023/05/23 10:19:15;;;;;;;26.38;24.58;;;;;;;24.59;100.00;100774.03;5045101;28;20075;-76
2023/05/23 10:21:47;;;;;;;23.90;22.15;;;;;;;24.13;100.00;100774.78;5043274;28;20075;-76
2023/05/23 10:24:14;;;;;;;23.98;22.00;;;;;;;24.48;100.00;100778.06;5035259;28;20521;-76
2023/05/23 10:26:43;;;;;;;23.35;21.65;;;;;;;24.41;100.00;100766.72;5043018;28;20044;-77
2023/05/23 10:29:10;;;;;;;25.60;23.67;;;;;;;25.18;100.00;100768.09;5046515;28;20056;-76
2023/05/23 10:31:38;;;;;;;23.02;21.35;;;;;;;25.66;100.00;100760.28;5046582;28;20061;-83
2023/05/23 10:34:19;;;;;;;23.65;21.80;;;;;;;24.48;100.00;100769.09;5046474;28;20053;-76
2023/05/23 10:36:57;;;;;;;22.70;20.88;;;;;;;24.97;100.00;100768.47;5044102;28;20062;-77
2023/05/23 10:39:34;;;;;;;22.80;20.80;;;;;;;25.06;100.00;100769.38;5042026;28;20045;-83
2023/05/23 10:42:07;;;;;;;22.95;20.92;;;;;;;24.00;100.00;100757.34;5038971;28;20490;-76
2023/05/23 10:44:34;;;;;;;21.88;20.10;;;;;;;25.26;100.00;100748.34;5041678;28;20048;-83
2023/05/23 10:47:03;;;;;;;21.42;19.73;;;;;;;25.05;100.00;100750.66;5032609;28;20046;-83
2023/05/23 10:49:42;;;;;;;22.65;20.70;;;;;;;25.51;100.00;100747.84;5036867;28;20728;-79
2023/05/23 10:52:11;;;;;;;23.40;21.45;;;;;;;25.26;100.00;100751.88;5033489;28;20053;-81
2023/05/23 10:54:43;;;;;;;22.15;20.40;;;;;;;25.38;100.00;100754.06;5047133;28;20041;-83
2023/05/23 10:57:12;;;;;;;23.45;21.67;;;;;;;24.69;100.00;100740.50;5035299;28;20103;-77
2023/05/23 10:59:40;;;;;;;23.10;21.20;;;;;;;25.75;100.00;100733.13;5049289;28;20571;-77
2023/05/23 11:02:14;;;;;;;21.05;18.98;;;;;;;26.01;100.00;100739.63;5042673;28;20141;-76
2023/05/23 11:04:43;;;;;;;20.92;19.33;;;;;;;25.94;100.00;100731.09;5036508;28;20136;-77
2023/05/23 11:07:31;;;;;;;20.35;18.80;;;;;;;25.27;100.00;100739.13;5040737;28;20049;-77
2023/05/23 11:10:08;;;;;;;20.33;18.73;;;;;;;25.52;100.00;100735.84;5043021;28;20588;-77